Hudgins, Virginia
Current Conditions -  °F | °C
As of 11:35 AM on Thursday 30 Oct 2014 (Local Time) from KW75 Reporting Station
Clear Clear  
Wind Chill: 59°   Ceiling: Unl
Heat Index: 59°   Visibility: 10mi
Dew Point: 41°   Wind: 10mph
Humidity: 52%   Direction: 350°N
Pressure: 30.05"   Gusts: NA
Location:  37.47°N, 76.33°W
Report Text: KW75 301535Z AUTO 35009KT 10SM CLR 15/05 A3005 RMK AO1 T01500051
Loading
Personal Weather Stations






























Interactive Weather Map New forecast layout! Learn more

10-Day Weather Forecast

Advertisements
Track Severe Weather on mobile